createdAt,value
2019-06-10T00:00:32.953Z,12.30
2019-06-10T00:03:07.231Z,11.93
2019-06-10T00:05:43.312Z,12.53
2019-06-10T00:08:16.411Z,12.30
2019-06-10T00:10:51.132Z,11.93
2019-06-10T00:13:25.972Z,11.47
2019-06-10T00:16:01.285Z,12.27
2019-06-10T00:18:42.076Z,12.40
2019-06-10T00:21:11.185Z,12.43
2019-06-10T00:23:46.920Z,12.90
2019-06-10T00:26:21.612Z,13.40
2019-06-10T00:28:56.112Z,12.37
2019-06-10T00:31:31.256Z,13.13
2019-06-10T00:34:06.351Z,12.37
2019-06-10T00:36:41.702Z,13.33
2019-06-10T00:39:15.171Z,12.70
2019-06-10T00:41:48.245Z,13.20
2019-06-10T00:44:23.436Z,13.50
2019-06-10T00:47:04.821Z,13.00
2019-06-10T00:49:37.374Z,13.30
2019-06-10T00:52:11.698Z,12.90
2019-06-10T00:54:43.602Z,12.73
2019-06-10T00:57:20.902Z,13.25
2019-06-10T00:59:55.516Z,13.80
2019-06-10T01:02:28.691Z,13.47
2019-06-10T01:05:01.535Z,14.43
2019-06-10T01:07:37.561Z,14.90
2019-06-10T01:10:13.413Z,15.40
2019-06-10T01:12:47.425Z,15.27
2019-06-10T01:15:21.854Z,16.02
2019-06-10T01:17:55.622Z,16.60
2019-06-10T01:20:28.105Z,15.60
2019-06-10T01:23:02.436Z,16.33
2019-06-10T01:25:37.770Z,17.60
2019-06-10T01:28:16.779Z,15.88
2019-06-10T01:30:51.677Z,17.80
2019-06-10T01:33:26.789Z,17.27
2019-06-10T01:36:01.021Z,17.30
2019-06-10T01:38:36.101Z,18.07
2019-06-10T01:41:11.131Z,18.23
2019-06-10T01:43:44.520Z,18.53
2019-06-10T01:46:17.503Z,18.17
2019-06-10T01:48:55.118Z,20.10
2019-06-10T01:51:31.693Z,18.87
2019-06-10T01:54:04.302Z,16.97
2019-06-10T01:56:36.631Z,19.57
2019-06-10T01:59:12.160Z,19.03
2019-06-10T02:02:01.597Z,19.30
2019-06-10T02:04:35.437Z,19.83
2019-06-10T02:07:09.195Z,20.40
2019-06-10T02:09:44.066Z,18.67
2019-06-10T02:12:18.777Z,18.77
2019-06-10T02:14:54.172Z,18.87
2019-06-10T02:17:28.478Z,19.43
2019-06-10T02:20:03.099Z,17.93
2019-06-10T02:22:35.263Z,18.27
2019-06-10T02:25:08.054Z,17.57
2019-06-10T02:27:45.206Z,17.97
2019-06-10T02:30:29.783Z,17.67
2019-06-10T02:32:56.948Z,17.80
2019-06-10T02:35:40.204Z,17.93
2019-06-10T02:38:05.464Z,17.43
2019-06-10T02:40:38.772Z,17.23
2019-06-10T02:43:17.820Z,16.97
2019-06-10T02:45:49.366Z,17.60
2019-06-10T02:48:27.907Z,17.37
2019-06-10T02:51:08.769Z,17.23
2019-06-10T02:53:43.653Z,17.53
2019-06-10T02:56:19.984Z,17.73
2019-06-10T02:58:56.392Z,18.70
2019-06-10T03:01:34.291Z,18.27
2019-06-10T03:04:07.490Z,18.45
2019-06-10T03:06:44.692Z,17.20
2019-06-10T03:09:16.947Z,18.02
2019-06-10T03:11:53.344Z,16.90
2019-06-10T03:14:25.678Z,16.33
2019-06-10T03:17:03.151Z,16.30
2019-06-10T03:19:46.954Z,17.43
2019-06-10T03:22:13.362Z,18.20
2019-06-10T03:24:45.495Z,17.83
2019-06-10T03:27:23.529Z,16.32
2019-06-10T03:30:04.740Z,17.33
2019-06-10T03:32:40.659Z,16.63
2019-06-10T03:35:12.946Z,15.30
2019-06-10T03:37:44.491Z,15.97
2019-06-10T03:40:18.528Z,16.30
2019-06-10T03:42:52.019Z,16.47
2019-06-10T03:45:26.747Z,15.85
2019-06-10T03:47:59.752Z,14.87
2019-06-10T03:50:32.491Z,15.50
2019-06-10T03:53:05.854Z,15.43
2019-06-10T03:55:42.239Z,16.50
2019-06-10T03:58:17.482Z,15.45
2019-06-10T04:00:54.646Z,15.67
2019-06-10T04:03:29.385Z,16.23
2019-06-10T04:06:03.583Z,14.80
2019-06-10T04:08:39.906Z,16.67
2019-06-10T04:11:12.986Z,19.70
2019-06-10T04:13:46.621Z,18.90
2019-06-10T04:16:20.217Z,16.85
2019-06-10T04:18:53.824Z,18.40
2019-06-10T04:21:29.646Z,16.20
2019-06-10T04:24:02.533Z,15.17
2019-06-10T04:26:38.154Z,17.70
2019-06-10T04:29:12.894Z,16.17
2019-06-10T04:31:46.715Z,16.10
2019-06-10T04:34:20.461Z,17.20
2019-06-10T04:36:56.037Z,17.37
2019-06-10T04:39:29.278Z,18.27
2019-06-10T04:42:02.521Z,16.80
2019-06-10T04:44:35.478Z,17.17
2019-06-10T04:47:07.888Z,16.60
2019-06-10T04:49:42.830Z,17.20
2019-06-10T04:52:16.270Z,17.10
2019-06-10T04:54:52.741Z,17.77
2019-06-10T04:57:26.870Z,17.77
2019-06-10T05:00:04.140Z,17.73
2019-06-10T05:02:35.830Z,18.33
2019-06-10T05:05:07.895Z,16.97
2019-06-10T05:07:42.602Z,17.87
2019-06-10T05:10:16.216Z,18.98
2019-06-10T05:12:48.441Z,18.30
2019-06-10T05:15:26.262Z,18.43
2019-06-10T05:17:58.879Z,18.57
2019-06-10T05:20:46.796Z,18.17
2019-06-10T05:23:05.927Z,17.93
2019-06-10T05:25:42.648Z,17.27
2019-06-10T05:28:14.322Z,16.77
2019-06-10T05:30:48.549Z,16.50
2019-06-10T05:33:24.020Z,18.35
2019-06-10T05:35:58.755Z,16.20
2019-06-10T05:38:35.302Z,16.07
2019-06-10T05:41:08.945Z,16.50
2019-06-10T05:43:43.174Z,16.33
2019-06-10T05:46:17.238Z,17.40
2019-06-10T05:48:52.415Z,16.47
2019-06-10T05:51:26.421Z,16.30
2019-06-10T05:54:02.178Z,15.53
2019-06-10T05:56:36.742Z,16.23
2019-06-10T05:59:08.945Z,15.27
2019-06-10T06:01:43.130Z,15.87
2019-06-10T06:04:17.604Z,28.17
2019-06-10T06:06:53.245Z,15.83
2019-06-10T06:09:27.148Z,15.93
2019-06-10T06:12:02.478Z,16.73
2019-06-10T06:14:38.643Z,16.13
2019-06-10T06:17:16.649Z,16.37
2019-06-10T06:19:46.746Z,17.07
2019-06-10T06:22:22.093Z,15.40
2019-06-10T06:24:57.090Z,16.03
2019-06-10T06:27:31.377Z,16.60
2019-06-10T06:30:11.401Z,16.63
2019-06-10T06:32:43.658Z,18.73
2019-06-10T06:35:19.059Z,16.48
2019-06-10T06:37:54.095Z,16.03
2019-06-10T06:40:29.204Z,16.93
2019-06-10T06:43:03.220Z,17.90
2019-06-10T06:45:37.466Z,18.73
2019-06-10T06:48:12.191Z,15.80
2019-06-10T06:51:01.950Z,17.03
2019-06-10T06:53:33.333Z,14.03
2019-06-10T06:55:58.098Z,14.27
2019-06-10T06:58:33.582Z,16.50
2019-06-10T07:01:11.005Z,15.47
2019-06-10T07:03:45.442Z,15.70
2019-06-10T07:06:22.902Z,14.90
2019-06-10T07:09:04.605Z,15.83
2019-06-10T07:11:38.708Z,16.87
2019-06-10T07:14:13.882Z,15.23
2019-06-10T07:16:46.792Z,17.00
2019-06-10T07:19:22.671Z,16.77
2019-06-10T07:22:09.453Z,15.50
2019-06-10T07:24:37.890Z,15.73
2019-06-10T07:27:08.092Z,15.97
2019-06-10T07:29:46.926Z,15.33
2019-06-10T07:32:17.185Z,16.30
2019-06-10T07:34:52.489Z,15.50
2019-06-10T07:37:25.065Z,15.53
2019-06-10T07:39:57.058Z,16.70
2019-06-10T07:42:33.309Z,16.83
2019-06-10T07:45:06.794Z,16.33
2019-06-10T07:47:39.066Z,16.00
2019-06-10T07:50:12.157Z,16.10
2019-06-10T07:52:46.924Z,16.00
2019-06-10T07:55:22.195Z,17.27
2019-06-10T07:57:55.890Z,16.80
2019-06-10T08:00:30.170Z,15.88
2019-06-10T08:03:04.824Z,16.37
2019-06-10T08:05:37.736Z,16.43
2019-06-10T08:08:14.156Z,15.18
2019-06-10T08:10:52.938Z,15.40
2019-06-10T08:13:24.969Z,14.13
2019-06-10T08:15:58.506Z,14.68
2019-06-10T08:18:38.142Z,14.47
2019-06-10T08:21:08.074Z,15.03
2019-06-10T08:23:44.750Z,14.80
2019-06-10T08:26:16.854Z,13.00
2019-06-10T08:28:52.812Z,13.60
2019-06-10T08:31:26.751Z,14.03
2019-06-10T08:34:02.759Z,16.00
2019-06-10T08:36:33.848Z,13.08
2019-06-10T08:39:15.897Z,13.60
2019-06-10T08:41:49.419Z,13.98
2019-06-10T08:44:23.172Z,13.08
2019-06-10T08:46:57.489Z,12.58
2019-06-10T08:49:33.035Z,16.35
2019-06-10T08:52:07.859Z,11.40
2019-06-10T08:54:45.696Z,12.00
2019-06-10T08:57:15.179Z,12.82
2019-06-10T08:59:49.284Z,13.10
2019-06-10T09:02:23.914Z,13.17
2019-06-10T09:04:56.029Z,12.70
2019-06-10T09:07:29.156Z,13.43
2019-06-10T09:10:03.031Z,12.15
2019-06-10T09:12:36.779Z,11.48
2019-06-10T09:15:09.701Z,13.45
2019-06-10T09:17:46.731Z,11.70
2019-06-10T09:20:22.788Z,11.53
2019-06-10T09:23:13.742Z,10.05
2019-06-10T09:25:28.042Z,10.10
2019-06-10T09:28:03.473Z,10.93
2019-06-10T09:30:36.788Z,10.98
2019-06-10T09:33:12.980Z,10.93
2019-06-10T09:35:49.096Z,10.10
2019-06-10T09:38:22.311Z,9.63
2019-06-10T09:41:01.237Z,11.03
2019-06-10T09:43:33.367Z,10.68
2019-06-10T09:46:07.613Z,11.12
2019-06-10T09:48:47.078Z,10.25
2019-06-10T09:51:19.555Z,10.30
2019-06-10T09:54:02.132Z,10.72
2019-06-10T09:56:28.578Z,10.43
2019-06-10T09:59:03.106Z,10.13
2019-06-10T10:01:37.961Z,10.18
2019-06-10T10:04:12.263Z,9.90
2019-06-10T10:06:46.673Z,9.70
2019-06-10T10:09:19.875Z,10.23
2019-06-10T10:11:55.910Z,9.73
2019-06-10T10:14:26.933Z,9.85
2019-06-10T10:17:00.748Z,9.15
2019-06-10T10:19:35.418Z,9.68
2019-06-10T10:22:11.642Z,10.70
2019-06-10T10:24:44.616Z,10.20
2019-06-10T10:27:19.021Z,10.37
2019-06-10T10:29:57.063Z,9.90
2019-06-10T10:32:26.738Z,9.73
2019-06-10T10:35:03.698Z,9.35
2019-06-10T10:37:37.195Z,8.73
2019-06-10T10:40:13.456Z,8.68
2019-06-10T10:42:52.221Z,8.75
2019-06-10T10:45:22.937Z,9.35
2019-06-10T10:47:57.784Z,9.58
2019-06-10T10:50:35.359Z,10.60
2019-06-10T10:53:07.430Z,9.83
2019-06-10T10:55:43.680Z,9.75
2019-06-10T10:58:16.315Z,10.25
2019-06-10T11:00:54.421Z,9.77
2019-06-10T11:03:26.130Z,9.67
2019-06-10T11:06:01.255Z,9.40
2019-06-10T11:08:34.129Z,9.93
2019-06-10T11:11:06.091Z,10.08
2019-06-10T11:13:43.366Z,10.00
2019-06-10T11:16:22.368Z,10.00
2019-06-10T11:18:58.118Z,9.43
2019-06-10T11:21:33.130Z,10.98
2019-06-10T11:24:05.466Z,11.15
2019-06-10T11:26:38.319Z,11.43
2019-06-10T11:29:09.941Z,10.93
2019-06-10T11:31:44.313Z,9.75
2019-06-10T11:34:19.929Z,10.90
2019-06-10T11:36:55.054Z,11.45
2019-06-10T11:39:28.882Z,12.53
2019-06-10T11:42:03.646Z,12.13
2019-06-10T11:44:36.076Z,12.33
2019-06-10T11:47:08.719Z,12.68
2019-06-10T11:49:43.274Z,12.15
2019-06-10T11:52:16.951Z,11.97
2019-06-10T11:54:59.212Z,11.63
2019-06-10T11:57:23.247Z,11.40
2019-06-10T11:59:57.779Z,12.07
2019-06-10T12:02:30.133Z,11.65
2019-06-10T12:05:05.853Z,11.05
2019-06-10T12:07:38.913Z,10.75
2019-06-10T12:10:12.842Z,10.15
2019-06-10T12:12:45.899Z,10.68
2019-06-10T12:15:19.965Z,10.68
2019-06-10T12:18:00.857Z,9.93
2019-06-10T12:20:33.247Z,10.18
2019-06-10T12:23:05.813Z,10.43
2019-06-10T12:25:39.861Z,10.72
2019-06-10T12:28:12.895Z,10.50
2019-06-10T12:30:45.454Z,10.85
2019-06-10T12:33:22.210Z,11.73
2019-06-10T12:35:56.548Z,10.60
2019-06-10T12:38:32.493Z,10.30
2019-06-10T12:41:09.562Z,9.97
2019-06-10T12:43:43.240Z,10.78
2019-06-10T12:46:16.944Z,10.40
2019-06-10T12:48:49.390Z,10.85
2019-06-10T12:51:23.792Z,10.58
2019-06-10T12:54:04.762Z,9.93
2019-06-10T12:56:34.900Z,10.30
2019-06-10T12:59:09.987Z,10.10
2019-06-10T13:01:45.046Z,9.53
2019-06-10T13:04:18.971Z,9.35
2019-06-10T13:06:52.785Z,9.67
2019-06-10T13:09:28.534Z,9.85
2019-06-10T13:12:03.995Z,9.35
2019-06-10T13:14:37.402Z,10.80
2019-06-10T13:17:10.210Z,7.08
2019-06-10T13:19:43.458Z,10.40
2019-06-10T13:22:17.123Z,10.80
2019-06-10T13:24:49.785Z,8.90
2019-06-10T13:27:23.732Z,8.65
2019-06-10T13:29:57.884Z,9.58
2019-06-10T13:32:35.616Z,9.40
2019-06-10T13:35:12.531Z,9.88
2019-06-10T13:37:46.970Z,10.10
2019-06-10T13:40:22.685Z,10.03
2019-06-10T13:42:57.610Z,9.30
2019-06-10T13:45:33.092Z,9.83
2019-06-10T13:48:08.369Z,9.83
2019-06-10T13:50:38.727Z,9.63
2019-06-10T13:53:12.645Z,8.22
2019-06-10T13:55:46.713Z,8.90
2019-06-10T13:58:22.811Z,9.43
2019-06-10T14:00:53.797Z,9.40
2019-06-10T14:03:26.563Z,8.80
2019-06-10T14:06:04.999Z,9.40
2019-06-10T14:08:35.333Z,8.83
2019-06-10T14:11:07.817Z,8.80
2019-06-10T14:13:44.254Z,8.63
2019-06-10T14:16:16.856Z,8.70
2019-06-10T14:18:50.270Z,9.03
2019-06-10T14:21:23.781Z,8.70
2019-06-10T14:23:56.958Z,9.20
2019-06-10T14:26:39.986Z,8.08
2019-06-10T14:29:04.144Z,8.33
2019-06-10T14:31:43.631Z,8.25
2019-06-10T14:34:14.019Z,8.60
2019-06-10T14:36:44.034Z,8.45
2019-06-10T14:39:18.050Z,8.48
2019-06-10T14:41:55.221Z,8.38
2019-06-10T14:44:28.881Z,8.23
2019-06-10T14:47:04.510Z,8.48
2019-06-10T14:49:36.505Z,8.83
2019-06-10T14:52:13.869Z,8.95
2019-06-10T14:54:47.956Z,9.43
2019-06-10T14:57:22.695Z,8.33
2019-06-10T14:59:55.350Z,8.30
2019-06-10T15:02:28.611Z,9.55
2019-06-10T15:05:02.778Z,8.40
2019-06-10T15:07:37.339Z,9.25
2019-06-10T15:10:14.500Z,8.70
2019-06-10T15:12:46.137Z,9.30
2019-06-10T15:15:18.128Z,9.63
2019-06-10T15:17:53.332Z,9.07
2019-06-10T15:20:26.572Z,9.15
2019-06-10T15:22:59.979Z,8.35
2019-06-10T15:25:48.696Z,9.85
2019-06-10T15:28:08.095Z,8.88
2019-06-10T15:30:43.144Z,9.20
2019-06-10T15:33:16.974Z,9.17
2019-06-10T15:35:53.304Z,8.45
2019-06-10T15:38:25.227Z,9.58
2019-06-10T15:40:56.975Z,9.00
2019-06-10T15:43:30.209Z,9.70
2019-06-10T15:46:07.051Z,8.30
2019-06-10T15:48:43.487Z,8.40
2019-06-10T15:51:22.487Z,9.83
2019-06-10T15:53:54.286Z,9.03
2019-06-10T15:56:39.845Z,9.48
2019-06-10T15:59:06.268Z,9.40
2019-06-10T16:01:39.979Z,8.83
2019-06-10T16:04:15.993Z,9.08
2019-06-10T16:06:49.756Z,9.93
2019-06-10T16:09:23.450Z,8.55
2019-06-10T16:11:55.386Z,8.78
2019-06-10T16:14:27.330Z,8.13
2019-06-10T16:17:03.104Z,8.73
2019-06-10T16:19:34.990Z,9.25
2019-06-10T16:22:12.382Z,9.53
2019-06-10T16:24:48.333Z,9.43
2019-06-10T16:27:43.208Z,8.87
2019-06-10T16:30:02.574Z,9.40
2019-06-10T16:32:36.834Z,9.73
2019-06-10T16:35:21.490Z,10.00
2019-06-10T16:37:56.841Z,9.58
2019-06-10T16:40:32.390Z,11.38
2019-06-10T16:43:05.009Z,9.73
2019-06-10T16:45:37.809Z,11.15
2019-06-10T16:48:09.942Z,11.80
2019-06-10T16:50:47.113Z,10.32
2019-06-10T16:53:28.458Z,10.48
2019-06-10T16:55:58.618Z,10.58
2019-06-10T16:58:33.190Z,9.05
2019-06-10T17:01:05.624Z,9.45
2019-06-10T17:03:37.950Z,9.67
2019-06-10T17:06:12.927Z,9.40
2019-06-10T17:08:46.385Z,9.38
2019-06-10T17:11:24.187Z,9.43
2019-06-10T17:13:58.260Z,9.03
2019-06-10T17:16:31.509Z,9.03
2019-06-10T17:19:03.988Z,8.80
2019-06-10T17:21:37.209Z,8.43
2019-06-10T17:24:12.892Z,8.90
2019-06-10T17:26:50.134Z,9.15
2019-06-10T17:29:25.928Z,9.00
2019-06-10T17:31:58.854Z,9.17
2019-06-10T17:34:33.929Z,8.70
2019-06-10T17:37:05.934Z,8.90
2019-06-10T17:39:42.752Z,9.18
2019-06-10T17:42:17.411Z,10.43
2019-06-10T17:44:50.059Z,8.60
2019-06-10T17:47:24.548Z,8.73
2019-06-10T17:49:56.845Z,9.10
2019-06-10T17:52:34.152Z,9.00
2019-06-10T17:55:07.545Z,8.88
2019-06-10T17:57:42.985Z,9.53
2019-06-10T18:00:18.579Z,9.78
2019-06-10T18:02:53.557Z,9.20
2019-06-10T18:05:25.544Z,8.93
2019-06-10T18:07:57.675Z,9.40
2019-06-10T18:10:29.866Z,9.28
2019-06-10T18:13:13.287Z,8.98
2019-06-10T18:15:36.878Z,9.45
2019-06-10T18:18:12.988Z,9.60
2019-06-10T18:20:53.299Z,9.28
2019-06-10T18:23:24.933Z,9.75
2019-06-10T18:25:59.037Z,9.90
2019-06-10T18:28:45.350Z,9.33
2019-06-10T18:31:08.682Z,10.25
2019-06-10T18:33:42.454Z,9.85
2019-06-10T18:36:16.402Z,9.88
2019-06-10T18:38:52.661Z,9.93
2019-06-10T18:41:25.125Z,9.33
2019-06-10T18:43:58.889Z,10.28
2019-06-10T18:46:33.251Z,11.70
2019-06-10T18:49:06.054Z,9.95
2019-06-10T18:51:43.200Z,10.28
2019-06-10T18:54:18.028Z,10.35
2019-06-10T18:56:52.544Z,10.50
2019-06-10T18:59:28.091Z,10.98
2019-06-10T19:02:06.230Z,10.40
2019-06-10T19:04:40.196Z,10.30
2019-06-10T19:07:12.216Z,10.83
2019-06-10T19:09:47.944Z,10.70
2019-06-10T19:12:22.453Z,11.68
2019-06-10T19:14:55.908Z,10.78
2019-06-10T19:17:33.139Z,10.35
2019-06-10T19:20:07.983Z,10.30
2019-06-10T19:22:41.107Z,11.00
2019-06-10T19:25:17.130Z,10.75
2019-06-10T19:27:52.977Z,9.43
2019-06-10T19:30:29.286Z,10.32
2019-06-10T19:33:05.208Z,9.93
2019-06-10T19:35:39.673Z,10.20
2019-06-10T19:38:13.464Z,10.05
2019-06-10T19:40:52.277Z,10.75
2019-06-10T19:43:26.381Z,11.65
2019-06-10T19:46:02.974Z,13.13
2019-06-10T19:48:40.187Z,11.77
2019-06-10T19:51:12.223Z,12.07
2019-06-10T19:53:45.355Z,12.30
2019-06-10T19:56:23.250Z,10.37
2019-06-10T19:58:55.305Z,11.50
2019-06-10T20:01:33.850Z,11.10
2019-06-10T20:04:09.705Z,10.93
2019-06-10T20:06:47.872Z,11.07
2019-06-10T20:09:16.562Z,11.37
2019-06-10T20:11:48.296Z,12.13
2019-06-10T20:14:21.934Z,11.97
2019-06-10T20:16:53.576Z,10.87
2019-06-10T20:19:29.337Z,11.77
2019-06-10T20:22:01.295Z,10.97
2019-06-10T20:24:34.010Z,11.53
2019-06-10T20:27:07.368Z,11.73
2019-06-10T20:29:39.947Z,11.57
2019-06-10T20:32:14.052Z,12.03
2019-06-10T20:34:52.688Z,11.80
2019-06-10T20:37:26.135Z,12.65
2019-06-10T20:39:59.550Z,12.73
2019-06-10T20:42:32.380Z,12.73
2019-06-10T20:45:08.407Z,12.33
2019-06-10T20:47:44.629Z,12.90
2019-06-10T20:50:19.806Z,11.88
2019-06-10T20:52:52.968Z,12.30
2019-06-10T20:55:40.115Z,13.17
2019-06-10T20:58:04.197Z,12.10
2019-06-10T21:00:48.054Z,12.03
2019-06-10T21:03:20.172Z,12.80
2019-06-10T21:05:53.598Z,12.27
2019-06-10T21:08:33.156Z,13.77
2019-06-10T21:11:08.970Z,13.07
2019-06-10T21:13:46.036Z,13.47
2019-06-10T21:16:15.261Z,13.10
2019-06-10T21:18:55.111Z,12.73
2019-06-10T21:21:27.061Z,12.97
2019-06-10T21:24:02.261Z,12.47
2019-06-10T21:26:35.670Z,12.00
2019-06-10T21:29:09.794Z,12.67
2019-06-10T21:31:46.769Z,12.60
2019-06-10T21:34:18.872Z,12.53
2019-06-10T21:36:55.999Z,12.93
2019-06-10T21:39:32.210Z,12.90
2019-06-10T21:42:05.246Z,14.37
2019-06-10T21:44:38.047Z,13.93
2019-06-10T21:47:12.823Z,13.50
2019-06-10T21:49:46.916Z,13.73
2019-06-10T21:52:20.058Z,13.13
2019-06-10T21:54:52.798Z,13.23
2019-06-10T21:57:27.231Z,13.90
2019-06-10T22:00:06.661Z,14.43
2019-06-10T22:02:39.175Z,13.23
2019-06-10T22:05:13.613Z,12.90
2019-06-10T22:07:49.599Z,13.30
2019-06-10T22:10:22.912Z,13.80
2019-06-10T22:12:56.075Z,14.67
2019-06-10T22:15:33.265Z,15.23
2019-06-10T22:18:08.426Z,15.50
2019-06-10T22:20:43.015Z,15.87
2019-06-10T22:23:18.328Z,17.05
2019-06-10T22:25:57.736Z,17.63
2019-06-10T22:28:33.508Z,17.17
2019-06-10T22:31:19.110Z,16.67
2019-06-10T22:33:45.278Z,16.33
2019-06-10T22:36:23.004Z,15.70
2019-06-10T22:38:59.276Z,15.20
2019-06-10T22:41:33.224Z,15.10
2019-06-10T22:44:06.919Z,14.23
2019-06-10T22:46:42.543Z,13.70
2019-06-10T22:49:19.391Z,13.85
2019-06-10T22:51:56.549Z,13.83
2019-06-10T22:54:32.102Z,14.33
2019-06-10T22:57:04.487Z,13.43
2019-06-10T22:59:37.798Z,13.17
2019-06-10T23:02:13.183Z,13.37
2019-06-10T23:04:47.036Z,14.10
2019-06-10T23:07:22.898Z,13.37
2019-06-10T23:09:57.500Z,14.10
2019-06-10T23:12:33.337Z,14.13
2019-06-10T23:15:08.225Z,14.58
2019-06-10T23:17:43.832Z,14.77
2019-06-10T23:20:17.452Z,13.90
2019-06-10T23:22:55.282Z,13.90
2019-06-10T23:25:26.478Z,14.40
2019-06-10T23:28:01.445Z,13.90
2019-06-10T23:30:36.753Z,14.30
2019-06-10T23:33:12.208Z,13.77
2019-06-10T23:35:47.554Z,14.30
2019-06-10T23:38:23.629Z,13.67
2019-06-10T23:40:56.927Z,14.77
2019-06-10T23:43:32.992Z,14.30
2019-06-10T23:46:11.984Z,15.07
2019-06-10T23:48:44.383Z,14.50
2019-06-10T23:51:16.651Z,13.53
2019-06-10T23:53:49.535Z,14.37
2019-06-10T23:56:22.182Z,14.28
2019-06-10T23:58:57.494Z,15.07
